createdAt,value
2023-03-04T00:02:13.309Z,4.3
2023-03-04T00:32:13.806Z,5.6
2023-03-04T01:02:14.227Z,7.4
2023-03-04T01:32:15.514Z,6.4
2023-03-04T02:02:24.358Z,4.5
2023-03-04T02:32:24.662Z,6.3
2023-03-04T03:02:23.777Z,3.3
2023-03-04T03:32:23.723Z,3.7
2023-03-04T04:02:23.537Z,4.2
2023-03-04T04:32:23.475Z,4.4
2023-03-04T05:02:23.591Z,5.2
2023-03-04T05:32:23.518Z,3.1
2023-03-04T06:02:23.423Z,2.6
2023-03-04T06:32:23.556Z,2.7
2023-03-04T07:02:24.320Z,2.9
2023-03-04T07:32:24.711Z,2.7
2023-03-04T08:02:24.979Z,1.3
2023-03-04T08:32:23.404Z,6.3
2023-03-04T09:02:24.279Z,4.6
2023-03-04T09:32:24.344Z,5.1
2023-03-04T10:02:33.184Z,3.5
2023-03-04T10:32:25.265Z,5
2023-03-04T11:02:38.252Z,3
2023-03-04T11:32:27.999Z,5.7
2023-03-04T12:02:32.393Z,9
2023-03-04T12:32:31.626Z,13.2
2023-03-04T13:02:45.903Z,11.9
2023-03-04T13:32:39.733Z,7.1
2023-03-04T14:02:29.704Z,6.9
2023-03-04T14:32:26.660Z,5.3
2023-03-04T15:02:39.401Z,3.4
2023-03-04T15:32:28.188Z,3.8
2023-03-04T16:02:30.254Z,7
2023-03-04T16:32:30.097Z,7.1
2023-03-04T17:02:33.268Z,4
2023-03-04T17:32:34.717Z,3.1
2023-03-04T18:02:32.110Z,5.2
2023-03-04T18:32:49.419Z,5.3
2023-03-04T19:02:35.386Z,6.3
2023-03-04T19:32:33.344Z,6
2023-03-04T20:02:33.628Z,4.5
2023-03-04T20:32:34.074Z,4.5
2023-03-04T21:02:34.026Z,3.1
2023-03-04T21:32:34.279Z,3.7
2023-03-04T22:02:34.172Z,2.3
2023-03-04T22:32:34.131Z,2.6
2023-03-04T23:02:33.959Z,3.2
2023-03-04T23:32:33.888Z,3.2
